sensor_id;sensor_type;location;lat;lon;timestamp;pressure;altitude;pressure_sealevel;temperature;humidity
17781;BME280;8498;52.516;13.790;2023-02-02T00:03:44;100209.91;;;5.94;84.16
17781;BME280;8498;52.516;13.790;2023-02-02T00:09:06;100210.69;;;5.96;83.65
17781;BME280;8498;52.516;13.790;2023-02-02T00:14:29;100202.34;;;6.03;83.59
17781;BME280;8498;52.516;13.790;2023-02-02T00:19:51;100207.97;;;5.97;83.36
17781;BME280;8498;52.516;13.790;2023-02-02T00:25:14;100204.81;;;6.06;82.69
17781;BME280;8498;52.516;13.790;2023-02-02T00:30:36;100196.44;;;6.14;82.25
17781;BME280;8498;52.516;13.790;2023-02-02T00:35:59;100188.72;;;6.11;81.65
17781;BME280;8498;52.516;13.790;2023-02-02T00:41:22;100197.44;;;6.27;81.49
17781;BME280;8498;52.516;13.790;2023-02-02T00:46:44;100199.16;;;6.28;81.61
17781;BME280;8498;52.516;13.790;2023-02-02T00:52:07;100180.31;;;6.34;82.41
17781;BME280;8498;52.516;13.790;2023-02-02T00:57:30;100175.03;;;6.34;84.01
17781;BME280;8498;52.516;13.790;2023-02-02T01:02:53;100188.69;;;6.26;84.82
17781;BME280;8498;52.516;13.790;2023-02-02T01:08:15;100180.78;;;6.26;84.33
17781;BME280;8498;52.516;13.790;2023-02-02T01:13:38;100174.00;;;6.22;84.44
17781;BME280;8498;52.516;13.790;2023-02-02T01:19:00;100163.16;;;6.27;84.82
17781;BME280;8498;52.516;13.790;2023-02-02T01:24:23;100191.06;;;6.31;85.50
17781;BME280;8498;52.516;13.790;2023-02-02T01:29:46;100189.38;;;6.30;85.21
17781;BME280;8498;52.516;13.790;2023-02-02T01:35:08;100182.38;;;6.29;85.92
17781;BME280;8498;52.516;13.790;2023-02-02T01:40:31;100180.38;;;6.18;87.32
17781;BME280;8498;52.516;13.790;2023-02-02T01:45:56;100180.38;;;6.18;87.01
17781;BME280;8498;52.516;13.790;2023-02-02T01:51:21;100181.13;;;6.20;86.64
17781;BME280;8498;52.516;13.790;2023-02-02T01:56:56;100203.56;;;6.28;85.92
17781;BME280;8498;52.516;13.790;2023-02-02T02:02:20;100191.38;;;6.41;85.80
17781;BME280;8498;52.516;13.790;2023-02-02T02:07:43;100184.66;;;6.35;86.40
17781;BME280;8498;52.516;13.790;2023-02-02T02:13:06;100193.25;;;6.39;86.22
17781;BME280;8498;52.516;13.790;2023-02-02T02:18:43;100194.88;;;6.41;87.07
17781;BME280;8498;52.516;13.790;2023-02-02T02:36:34;100223.75;;;6.29;90.00
17781;BME280;8498;52.516;13.790;2023-02-02T02:42:09;100233.59;;;6.41;91.25
17781;BME280;8498;52.516;13.790;2023-02-02T02:47:34;100238.72;;;6.28;91.69
17781;BME280;8498;52.516;13.790;2023-02-02T02:53:05;100251.13;;;6.26;91.64
17781;BME280;8498;52.516;13.790;2023-02-02T03:09:59;100270.53;;;6.25;93.96
17781;BME280;8498;52.516;13.790;2023-02-02T03:15:23;100279.13;;;6.29;94.19
17781;BME280;8498;52.516;13.790;2023-02-02T03:20:46;100285.19;;;6.15;94.82
17781;BME280;8498;52.516;13.790;2023-02-02T03:26:08;100285.78;;;6.20;95.17
17781;BME280;8498;52.516;13.790;2023-02-02T03:31:31;100317.06;;;6.26;94.51
17781;BME280;8498;52.516;13.790;2023-02-02T03:36:53;100319.41;;;6.01;94.66
17781;BME280;8498;52.516;13.790;2023-02-02T03:42:18;100308.50;;;6.07;94.52
17781;BME280;8498;52.516;13.790;2023-02-02T03:47:40;100344.56;;;5.91;94.79
17781;BME280;8498;52.516;13.790;2023-02-02T03:53:03;100347.53;;;5.83;95.52
17781;BME280;8498;52.516;13.790;2023-02-02T03:58:26;100362.66;;;5.97;95.03
17781;BME280;8498;52.516;13.790;2023-02-02T04:03:49;100376.69;;;5.97;94.96
17781;BME280;8498;52.516;13.790;2023-02-02T04:09:11;100393.78;;;5.90;94.65
17781;BME280;8498;52.516;13.790;2023-02-02T04:14:33;100381.81;;;6.16;94.15
17781;BME280;8498;52.516;13.790;2023-02-02T04:19:56;100390.66;;;6.15;94.04
17781;BME280;8498;52.516;13.790;2023-02-02T04:25:19;100411.59;;;6.18;94.17
17781;BME280;8498;52.516;13.790;2023-02-02T04:30:41;100408.47;;;6.27;93.74
17781;BME280;8498;52.516;13.790;2023-02-02T04:36:04;100403.97;;;6.29;93.74
17781;BME280;8498;52.516;13.790;2023-02-02T04:41:26;100430.50;;;6.26;93.52
17781;BME280;8498;52.516;13.790;2023-02-02T04:46:49;100447.38;;;6.39;92.86
17781;BME280;8498;52.516;13.790;2023-02-02T04:52:11;100465.41;;;6.31;91.97
17781;BME280;8498;52.516;13.790;2023-02-02T04:57:33;100464.47;;;6.32;91.38
17781;BME280;8498;52.516;13.790;2023-02-02T05:02:56;100466.94;;;6.35;90.66
17781;BME280;8498;52.516;13.790;2023-02-02T05:08:21;100479.44;;;6.32;91.27
17781;BME280;8498;52.516;13.790;2023-02-02T05:13:51;100493.22;;;6.37;91.09
17781;BME280;8498;52.516;13.790;2023-02-02T05:19:14;100491.09;;;6.28;91.39
17781;BME280;8498;52.516;13.790;2023-02-02T05:24:38;100510.28;;;6.14;91.35
17781;BME280;8498;52.516;13.790;2023-02-02T05:30:00;100522.38;;;6.18;91.00
17781;BME280;8498;52.516;13.790;2023-02-02T05:35:23;100531.94;;;6.36;90.83
17781;BME280;8498;52.516;13.790;2023-02-02T05:40:47;100538.06;;;6.21;90.45
17781;BME280;8498;52.516;13.790;2023-02-02T05:46:10;100563.50;;;6.05;90.75
17781;BME280;8498;52.516;13.790;2023-02-02T05:51:38;100579.78;;;6.13;91.04
17781;BME280;8498;52.516;13.790;2023-02-02T05:57:02;100581.97;;;6.22;90.71
17781;BME280;8498;52.516;13.790;2023-02-02T06:02:24;100589.63;;;6.26;90.03
17781;BME280;8498;52.516;13.790;2023-02-02T06:07:46;100601.66;;;6.15;89.93
17781;BME280;8498;52.516;13.790;2023-02-02T06:13:09;100623.78;;;6.12;89.58
17781;BME280;8498;52.516;13.790;2023-02-02T06:18:32;100629.44;;;6.22;89.22
17781;BME280;8498;52.516;13.790;2023-02-02T06:23:56;100630.34;;;6.04;88.58
17781;BME280;8498;52.516;13.790;2023-02-02T06:29:18;100653.19;;;6.22;88.00
17781;BME280;8498;52.516;13.790;2023-02-02T06:34:41;100657.28;;;6.10;87.81
17781;BME280;8498;52.516;13.790;2023-02-02T06:40:05;100675.50;;;6.15;87.78
17781;BME280;8498;52.516;13.790;2023-02-02T06:45:29;100680.50;;;6.21;87.38
17781;BME280;8498;52.516;13.790;2023-02-02T06:50:54;100679.25;;;6.11;86.51
17781;BME280;8498;52.516;13.790;2023-02-02T06:56:18;100684.59;;;6.26;85.48
17781;BME280;8498;52.516;13.790;2023-02-02T07:01:40;100696.72;;;6.31;85.04
17781;BME280;8498;52.516;13.790;2023-02-02T07:07:03;100706.25;;;6.33;83.54
17781;BME280;8498;52.516;13.790;2023-02-02T07:12:25;100712.69;;;6.28;82.25
17781;BME280;8498;52.516;13.790;2023-02-02T07:17:48;100728.44;;;6.29;81.82
17781;BME280;8498;52.516;13.790;2023-02-02T07:23:10;100745.06;;;6.31;81.59
17781;BME280;8498;52.516;13.790;2023-02-02T07:28:33;100755.53;;;6.50;80.20
17781;BME280;8498;52.516;13.790;2023-02-02T07:33:56;100765.56;;;6.43;80.68
17781;BME280;8498;52.516;13.790;2023-02-02T07:39:18;100770.53;;;6.49;80.00
17781;BME280;8498;52.516;13.790;2023-02-02T07:44:40;100785.81;;;6.43;79.86
17781;BME280;8498;52.516;13.790;2023-02-02T07:50:03;100780.47;;;6.61;79.19
17781;BME280;8498;52.516;13.790;2023-02-02T07:55:25;100792.41;;;6.51;78.60
17781;BME280;8498;52.516;13.790;2023-02-02T08:00:48;100800.94;;;6.56;78.07
17781;BME280;8498;52.516;13.790;2023-02-02T08:06:22;100810.28;;;6.63;77.15
17781;BME280;8498;52.516;13.790;2023-02-02T08:11:45;100823.81;;;6.75;76.70
17781;BME280;8498;52.516;13.790;2023-02-02T08:17:07;100825.88;;;6.68;76.03
17781;BME280;8498;52.516;13.790;2023-02-02T08:22:30;100829.09;;;6.75;75.04
17781;BME280;8498;52.516;13.790;2023-02-02T08:27:53;100844.81;;;6.76;74.53
17781;BME280;8498;52.516;13.790;2023-02-02T08:33:16;100866.19;;;6.72;74.10
17781;BME280;8498;52.516;13.790;2023-02-02T08:38:38;100856.03;;;6.81;74.14
17781;BME280;8498;52.516;13.790;2023-02-02T08:44:07;100871.19;;;6.95;73.07
17781;BME280;8498;52.516;13.790;2023-02-02T08:49:32;100858.38;;;7.05;73.45
17781;BME280;8498;52.516;13.790;2023-02-02T08:54:55;100876.44;;;6.78;72.46
17781;BME280;8498;52.516;13.790;2023-02-02T09:00:18;100884.06;;;6.84;74.17
17781;BME280;8498;52.516;13.790;2023-02-02T09:05:40;100882.03;;;6.72;77.98
17781;BME280;8498;52.516;13.790;2023-02-02T09:11:05;100898.06;;;6.50;80.99
17781;BME280;8498;52.516;13.790;2023-02-02T09:16:28;100902.25;;;6.35;83.11
17781;BME280;8498;52.516;13.790;2023-02-02T09:21:51;100895.78;;;6.23;83.55
17781;BME280;8498;52.516;13.790;2023-02-02T09:27:13;100932.06;;;6.37;83.75
17781;BME280;8498;52.516;13.790;2023-02-02T09:32:36;100902.69;;;6.45;79.05
17781;BME280;8498;52.516;13.790;2023-02-02T09:37:58;100920.84;;;6.70;79.10
17781;BME280;8498;52.516;13.790;2023-02-02T09:43:42;100920.03;;;6.86;80.87
17781;BME280;8498;52.516;13.790;2023-02-02T09:49:10;100924.88;;;6.95;81.58
17781;BME280;8498;52.516;13.790;2023-02-02T09:54:40;100927.34;;;6.98;81.82
17781;BME280;8498;52.516;13.790;2023-02-02T10:00:05;100941.06;;;7.24;81.72
17781;BME280;8498;52.516;13.790;2023-02-02T10:05:43;100941.28;;;7.19;79.76
17781;BME280;8498;52.516;13.790;2023-02-02T10:16:40;100946.41;;;7.74;77.13
17781;BME280;8498;52.516;13.790;2023-02-02T10:22:11;100953.31;;;7.59;76.75
17781;BME280;8498;52.516;13.790;2023-02-02T10:27:39;100953.19;;;7.62;76.30
17781;BME280;8498;52.516;13.790;2023-02-02T10:33:06;100996.03;;;7.34;78.11
17781;BME280;8498;52.516;13.790;2023-02-02T10:38:45;100978.09;;;6.50;81.63
17781;BME280;8498;52.516;13.790;2023-02-02T10:44:27;100983.66;;;6.63;81.66
17781;BME280;8498;52.516;13.790;2023-02-02T10:50:01;100979.16;;;7.37;76.69
17781;BME280;8498;52.516;13.790;2023-02-02T10:55:36;100987.31;;;6.96;77.71
17781;BME280;8498;52.516;13.790;2023-02-02T11:01:02;100983.09;;;7.97;72.98
17781;BME280;8498;52.516;13.790;2023-02-02T11:06:28;100995.69;;;7.92;69.58
17781;BME280;8498;52.516;13.790;2023-02-02T11:12:22;100996.06;;;8.68;66.34
17781;BME280;8498;52.516;13.790;2023-02-02T11:17:45;101017.19;;;9.46;62.26
17781;BME280;8498;52.516;13.790;2023-02-02T11:23:16;101011.78;;;8.87;65.08
17781;BME280;8498;52.516;13.790;2023-02-02T11:28:39;101054.16;;;8.21;68.32
17781;BME280;8498;52.516;13.790;2023-02-02T11:34:27;101059.66;;;7.30;73.33
17781;BME280;8498;52.516;13.790;2023-02-02T11:39:49;101059.81;;;7.08;72.40
17781;BME280;8498;52.516;13.790;2023-02-02T11:45:16;101061.72;;;7.42;72.78
17781;BME280;8498;52.516;13.790;2023-02-02T11:56:23;101090.34;;;7.68;70.48
17781;BME280;8498;52.516;13.790;2023-02-02T12:01:46;101095.19;;;7.24;72.61
17781;BME280;8498;52.516;13.790;2023-02-02T12:07:30;101085.38;;;7.80;73.30
17781;BME280;8498;52.516;13.790;2023-02-02T12:41:33;101110.44;;;9.39;64.30
17781;BME280;8498;52.516;13.790;2023-02-02T13:09:30;101145.03;;;10.28;63.19
17781;BME280;8498;52.516;13.790;2023-02-02T13:14:59;101146.59;;;10.47;61.45
17781;BME280;8498;52.516;13.790;2023-02-02T13:26:20;101177.00;;;9.34;62.73
17781;BME280;8498;52.516;13.790;2023-02-02T13:31:48;101196.81;;;8.61;64.42
17781;BME280;8498;52.516;13.790;2023-02-02T13:37:16;101202.84;;;8.11;66.42
17781;BME280;8498;52.516;13.790;2023-02-02T13:42:48;101219.34;;;7.81;67.57
17781;BME280;8498;52.516;13.790;2023-02-02T14:00:15;101248.72;;;8.29;64.51
17781;BME280;8498;52.516;13.790;2023-02-02T14:05:39;101261.31;;;8.60;63.99
17781;BME280;8498;52.516;13.790;2023-02-02T14:11:04;101263.00;;;8.44;65.39
17781;BME280;8498;52.516;13.790;2023-02-02T14:39:07;101340.72;;;7.29;65.82
17781;BME280;8498;52.516;13.790;2023-02-02T14:44:31;101355.59;;;7.11;66.69
17781;BME280;8498;52.516;13.790;2023-02-02T14:49:58;101370.63;;;6.89;67.82
17781;BME280;8498;52.516;13.790;2023-02-02T14:55:21;101387.31;;;6.69;68.07
17781;BME280;8498;52.516;13.790;2023-02-02T15:00:54;101407.41;;;6.51;68.84
17781;BME280;8498;52.516;13.790;2023-02-02T15:06:47;101416.97;;;6.32;69.46
17781;BME280;8498;52.516;13.790;2023-02-02T15:12:13;101433.47;;;6.14;70.66
17781;BME280;8498;52.516;13.790;2023-02-02T15:39:33;101489.31;;;5.26;76.78
17781;BME280;8498;52.516;13.790;2023-02-02T15:44:58;101495.25;;;5.06;77.71
17781;BME280;8498;52.516;13.790;2023-02-02T15:50:20;101504.69;;;4.85;78.23
17781;BME280;8498;52.516;13.790;2023-02-02T15:55:43;101517.50;;;4.68;79.17
17781;BME280;8498;52.516;13.790;2023-02-02T16:01:14;101528.78;;;4.43;80.12
17781;BME280;8498;52.516;13.790;2023-02-02T16:06:37;101548.34;;;4.33;80.35
17781;BME280;8498;52.516;13.790;2023-02-02T16:12:00;101555.81;;;4.18;80.44
17781;BME280;8498;52.516;13.790;2023-02-02T16:17:31;101573.91;;;3.96;81.17
17781;BME280;8498;52.516;13.790;2023-02-02T16:22:56;101584.91;;;3.78;82.32
17781;BME280;8498;52.516;13.790;2023-02-02T16:28:27;101601.69;;;3.74;81.64
17781;BME280;8498;52.516;13.790;2023-02-02T16:33:49;101608.00;;;3.65;82.14
17781;BME280;8498;52.516;13.790;2023-02-02T16:39:14;101628.50;;;3.52;83.39
17781;BME280;8498;52.516;13.790;2023-02-02T16:44:41;101632.63;;;3.24;83.82
17781;BME280;8498;52.516;13.790;2023-02-02T16:50:17;101644.44;;;3.05;84.79
17781;BME280;8498;52.516;13.790;2023-02-02T16:55:46;101651.63;;;2.97;85.81
17781;BME280;8498;52.516;13.790;2023-02-02T17:01:12;101655.00;;;3.02;85.14
17781;BME280;8498;52.516;13.790;2023-02-02T17:06:37;101659.91;;;2.77;85.40
17781;BME280;8498;52.516;13.790;2023-02-02T17:17:56;101677.09;;;2.48;86.67
17781;BME280;8498;52.516;13.790;2023-02-02T17:23:19;101687.53;;;2.50;87.16
17781;BME280;8498;52.516;13.790;2023-02-02T17:28:41;101705.19;;;2.40;86.60
17781;BME280;8498;52.516;13.790;2023-02-02T17:34:11;101701.03;;;2.30;87.66
17781;BME280;8498;52.516;13.790;2023-02-02T17:39:39;101708.09;;;2.27;87.76
17781;BME280;8498;52.516;13.790;2023-02-02T17:45:01;101719.50;;;2.22;87.84
17781;BME280;8498;52.516;13.790;2023-02-02T17:50:25;101730.94;;;2.18;87.61
17781;BME280;8498;52.516;13.790;2023-02-02T17:55:48;101725.94;;;2.05;87.58
17781;BME280;8498;52.516;13.790;2023-02-02T18:01:11;101743.44;;;2.03;88.00
17781;BME280;8498;52.516;13.790;2023-02-02T18:06:34;101733.84;;;2.00;88.35
17781;BME280;8498;52.516;13.790;2023-02-02T18:11:57;101748.81;;;1.94;88.39
17781;BME280;8498;52.516;13.790;2023-02-02T18:17:19;101745.34;;;1.92;88.21
17781;BME280;8498;52.516;13.790;2023-02-02T18:22:42;101749.97;;;1.76;89.43
17781;BME280;8498;52.516;13.790;2023-02-02T18:28:06;101755.22;;;1.76;89.35
17781;BME280;8498;52.516;13.790;2023-02-02T18:33:29;101751.78;;;1.72;89.09
17781;BME280;8498;52.516;13.790;2023-02-02T18:38:51;101756.31;;;1.60;89.91
17781;BME280;8498;52.516;13.790;2023-02-02T18:44:15;101758.16;;;1.55;89.98
17781;BME280;8498;52.516;13.790;2023-02-02T18:49:37;101756.47;;;1.47;90.15
17781;BME280;8498;52.516;13.790;2023-02-02T18:55:00;101763.53;;;1.42;90.13
17781;BME280;8498;52.516;13.790;2023-02-02T19:00:22;101756.59;;;1.38;90.19
17781;BME280;8498;52.516;13.790;2023-02-02T19:05:44;101753.94;;;1.41;90.19
17781;BME280;8498;52.516;13.790;2023-02-02T19:11:40;101756.63;;;1.35;90.06
17781;BME280;8498;52.516;13.790;2023-02-02T19:22:36;101763.72;;;1.27;91.22
17781;BME280;8498;52.516;13.790;2023-02-02T19:28:03;101757.59;;;1.30;90.58
17781;BME280;8498;52.516;13.790;2023-02-02T19:33:37;101769.06;;;1.21;90.11
17781;BME280;8498;52.516;13.790;2023-02-02T19:39:25;101776.06;;;1.18;90.92
17781;BME280;8498;52.516;13.790;2023-02-02T19:44:52;101778.56;;;1.25;90.27
17781;BME280;8498;52.516;13.790;2023-02-02T19:50:18;101780.44;;;1.17;89.94
17781;BME280;8498;52.516;13.790;2023-02-02T19:55:41;101778.69;;;1.16;90.48
17781;BME280;8498;52.516;13.790;2023-02-02T20:01:17;101782.25;;;1.12;91.39
17781;BME280;8498;52.516;13.790;2023-02-02T20:06:41;101788.47;;;1.03;90.83
17781;BME280;8498;52.516;13.790;2023-02-02T20:12:25;101795.28;;;1.15;90.68
17781;BME280;8498;52.516;13.790;2023-02-02T20:17:49;101791.75;;;1.19;90.87
17781;BME280;8498;52.516;13.790;2023-02-02T20:28:44;101781.41;;;1.08;91.03
17781;BME280;8498;52.516;13.790;2023-02-02T20:34:27;101780.44;;;1.17;91.00
17781;BME280;8498;52.516;13.790;2023-02-02T20:39:57;101786.53;;;1.18;91.37
17781;BME280;8498;52.516;13.790;2023-02-02T20:45:22;101783.03;;;1.20;89.98
17781;BME280;8498;52.516;13.790;2023-02-02T20:50:45;101780.63;;;1.02;90.95
17781;BME280;8498;52.516;13.790;2023-02-02T20:56:07;101787.66;;;0.95;90.84
17781;BME280;8498;52.516;13.790;2023-02-02T21:01:30;101785.84;;;1.02;91.19
17781;BME280;8498;52.516;13.790;2023-02-02T21:06:52;101786.69;;;1.04;90.73
17781;BME280;8498;52.516;13.790;2023-02-02T21:12:16;101774.41;;;1.10;90.54
17781;BME280;8498;52.516;13.790;2023-02-02T21:17:39;101768.41;;;1.01;90.64
17781;BME280;8498;52.516;13.790;2023-02-02T21:23:02;101760.59;;;0.96;91.13
17781;BME280;8498;52.516;13.790;2023-02-02T21:28:24;101755.25;;;1.08;91.42
17781;BME280;8498;52.516;13.790;2023-02-02T21:33:47;101748.38;;;1.00;90.57
17781;BME280;8498;52.516;13.790;2023-02-02T21:39:17;101750.13;;;0.98;91.31
17781;BME280;8498;52.516;13.790;2023-02-02T21:44:56;101743.91;;;1.08;92.14
17781;BME280;8498;52.516;13.790;2023-02-02T21:50:24;101748.28;;;1.06;91.23
17781;BME280;8498;52.516;13.790;2023-02-02T21:55:58;101751.81;;;1.03;91.71
17781;BME280;8498;52.516;13.790;2023-02-02T22:01:30;101745.63;;;1.10;91.70
17781;BME280;8498;52.516;13.790;2023-02-02T22:07:00;101753.38;;;1.18;91.92
17781;BME280;8498;52.516;13.790;2023-02-02T22:12:23;101749.00;;;1.20;91.56
17781;BME280;8498;52.516;13.790;2023-02-02T22:17:46;101735.88;;;1.22;91.76
17781;BME280;8498;52.516;13.790;2023-02-02T22:23:09;101724.44;;;1.30;91.77
17781;BME280;8498;52.516;13.790;2023-02-02T22:28:37;101722.66;;;1.32;91.98
17781;BME280;8498;52.516;13.790;2023-02-02T22:34:03;101718.19;;;1.39;91.76
17781;BME280;8498;52.516;13.790;2023-02-02T22:39:25;101719.09;;;1.36;91.77
17781;BME280;8498;52.516;13.790;2023-02-02T22:44:48;101715.59;;;1.37;91.79
17781;BME280;8498;52.516;13.790;2023-02-02T22:50:10;101719.91;;;1.41;91.96
17781;BME280;8498;52.516;13.790;2023-02-02T22:55:33;101729.44;;;1.45;91.99
17781;BME280;8498;52.516;13.790;2023-02-02T23:00:56;101724.91;;;1.58;91.49
17781;BME280;8498;52.516;13.790;2023-02-02T23:06:18;101729.41;;;1.48;92.16
17781;BME280;8498;52.516;13.790;2023-02-02T23:11:41;101717.97;;;1.56;92.14
17781;BME280;8498;52.516;13.790;2023-02-02T23:17:03;101704.78;;;1.62;92.99
17781;BME280;8498;52.516;13.790;2023-02-02T23:22:29;101703.84;;;1.66;92.90
17781;BME280;8498;52.516;13.790;2023-02-02T23:27:52;101705.56;;;1.67;93.00
17781;BME280;8498;52.516;13.790;2023-02-02T23:33:14;101701.13;;;1.72;92.92
17781;BME280;8498;52.516;13.790;2023-02-02T23:38:36;101695.78;;;1.78;93.35
17781;BME280;8498;52.516;13.790;2023-02-02T23:43:59;101683.44;;;1.86;93.22
17781;BME280;8498;52.516;13.790;2023-02-02T23:49:21;101678.09;;;1.92;93.33
17781;BME280;8498;52.516;13.790;2023-02-02T23:54:44;101669.34;;;1.93;93.36
